Time;durP1;ratioP1;P1;durP2;ratioP2;P2;SDS_P1;SDS_P2;PMS_P1;PMS_P2;Temp;Humidity;BMP_temperature;BMP_pressure;BME280_temperature;BME280_humidity;BME280_pressure;Samples;Min_cycle;Max_cycle;Signal;HPM_P1;HPM_P2
2022/01/27 00:07:35;;;;;;;35.22;18.00;;;6.10;99.90;;;;;;5041128;28;20090;-62
2022/01/27 00:10:16;;;;;;;37.60;17.45;;;6.20;99.90;;;;;;5074216;28;20044;-62
2022/01/27 00:12:43;;;;;;;41.33;17.92;;;6.30;99.90;;;;;;5073719;28;20052;-62
2022/01/27 00:15:12;;;;;;;33.95;16.90;;;6.10;99.90;;;;;;5074470;28;20064;-62
2022/01/27 00:17:43;;;;;;;35.10;16.70;;;6.20;99.90;;;;;;5073958;28;20044;-62
2022/01/27 00:20:09;;;;;;;38.92;16.15;;;6.10;99.90;;;;;;5057533;28;20040;-62
2022/01/27 00:22:35;;;;;;;35.55;16.83;;;6.20;99.90;;;;;;5075174;28;20048;-62
2022/01/27 00:25:02;;;;;;;35.70;17.45;;;6.30;99.90;;;;;;5075326;28;20048;-62
2022/01/27 00:27:28;;;;;;;39.55;17.25;;;6.10;99.90;;;;;;5057317;28;20098;-62
2022/01/27 00:29:54;;;;;;;39.92;17.42;;;6.20;99.90;;;;;;5056947;28;20051;-62
2022/01/27 00:32:20;;;;;;;34.58;16.80;;;;;;;;;;5057510;28;20048;-62
2022/01/27 00:34:46;;;;;;;34.25;16.67;;;6.20;99.90;;;;;;5057302;28;20032;-62
2022/01/27 00:37:12;;;;;;;37.10;17.30;;;;;;;;;;5057101;28;20509;-62
2022/01/27 00:39:37;;;;;;;38.85;17.38;;;6.20;99.90;;;;;;5074886;28;20067;-62
2022/01/27 00:42:03;;;;;;;35.33;16.45;;;6.20;99.90;;;;;;5057256;28;20128;-62
2022/01/27 00:44:29;;;;;;;32.80;16.48;;;;;;;;;;5073369;28;20547;-62
2022/01/27 00:46:55;;;;;;;39.33;18.38;;;6.20;99.90;;;;;;5075050;28;20039;-62
2022/01/27 00:49:21;;;;;;;33.03;16.00;;;;;;;;;;5074832;28;20028;-62
2022/01/27 00:51:47;;;;;;;36.80;16.67;;;6.10;99.90;;;;;;5057123;28;20074;-62
2022/01/27 00:54:19;;;;;;;35.65;16.48;;;6.40;99.90;;;;;;5075059;28;20040;-62
2022/01/27 00:57:06;;;;;;;32.95;16.55;;;6.30;99.90;;;;;;5073521;28;20123;-62
2022/01/27 00:59:41;;;;;;;41.55;16.83;;;6.20;99.90;;;;;;5056676;28;20055;-62
2022/01/27 01:02:26;;;;;;;34.67;15.77;;;6.30;99.90;;;;;;5073409;28;20040;-62
2022/01/27 01:05:09;;;;;;;33.28;16.08;;;6.20;99.90;;;;;;5057423;28;20044;-60
2022/01/27 01:07:38;;;;;;;29.80;15.52;;;6.20;99.90;;;;;;5073487;28;20051;-60
2022/01/27 01:15:39;;;;;;;33.28;15.50;;;6.40;99.90;;;;;;5054681;28;20045;-60
2022/01/27 01:20:51;;;;;;;37.60;16.90;;;6.30;99.90;;;;;;5054675;28;20041;-62
2022/01/27 01:31:44;;;;;;;31.10;15.80;;;6.30;99.90;;;;;;5054177;28;20044;-62
2022/01/27 01:34:23;;;;;;;32.10;16.40;;;6.20;99.90;;;;;;5052945;28;20052;-62
2022/01/27 01:37:01;;;;;;;28.83;15.95;;;6.10;99.90;;;;;;5052679;28;20398;-62
2022/01/27 01:39:29;;;;;;;37.88;17.52;;;6.00;99.90;;;;;;5069400;28;20040;-62
2022/01/27 01:41:57;;;;;;;39.60;19.50;;;6.10;99.90;;;;;;5054005;28;20172;-62
2022/01/27 01:44:24;;;;;;;36.90;17.17;;;6.10;99.90;;;;;;5052698;28;20056;-62
2022/01/27 01:46:51;;;;;;;43.22;18.83;;;6.00;99.90;;;;;;5052639;28;20049;-62
2022/01/27 01:49:16;;;;;;;40.08;18.88;;;6.20;99.90;;;;;;5069103;28;20071;-62
2022/01/27 01:51:43;;;;;;;36.42;17.50;;;6.10;99.90;;;;;;5053758;28;20048;-62
2022/01/27 01:54:09;;;;;;;34.15;17.70;;;6.10;99.90;;;;;;5052280;28;20083;-62
2022/01/27 01:56:37;;;;;;;35.92;17.73;;;6.00;99.90;;;;;;5052683;28;20055;-62
2022/01/27 01:59:05;;;;;;;34.88;18.92;;;6.10;99.90;;;;;;5052198;28;20041;-62
2022/01/27 02:01:31;;;;;;;35.88;18.65;;;;;;;;;;5053592;28;20077;-62
2022/01/27 02:04:02;;;;;;;43.20;20.23;;;5.90;99.90;;;;;;5053410;28;20036;-62
2022/01/27 02:06:34;;;;;;;39.85;20.40;;;6.00;99.90;;;;;;5052374;28;20090;-62
2022/01/27 02:19:43;;;;;;;37.83;17.70;;;6.00;99.90;;;;;;5073563;28;20098;-62
2022/01/27 02:22:09;;;;;;;36.13;19.15;;;6.10;99.90;;;;;;5056047;28;20078;-62
2022/01/27 02:24:36;;;;;;;42.35;20.33;;;6.20;99.90;;;;;;5072547;28;20052;-62
2022/01/27 02:27:03;;;;;;;37.35;20.00;;;6.10;99.90;;;;;;5073460;28;20531;-62
2022/01/27 02:29:29;;;;;;;39.75;20.13;;;6.00;99.90;;;;;;5073565;28;20123;-62
2022/01/27 02:31:57;;;;;;;39.10;19.67;;;6.10;99.90;;;;;;5055205;28;20153;-62
2022/01/27 02:34:24;;;;;;;38.92;19.13;;;6.10;99.90;;;;;;5073426;28;20059;-62
2022/01/27 02:36:50;;;;;;;40.47;20.08;;;6.00;99.90;;;;;;5073313;28;20036;-62
2022/01/27 02:39:17;;;;;;;36.10;19.90;;;6.10;99.90;;;;;;5059610;28;20032;-62
2022/01/27 02:42:00;;;;;;;39.55;20.83;;;6.20;99.90;;;;;;5076099;28;20082;-62
2022/01/27 02:44:55;;;;;;;35.30;17.35;;;6.30;99.90;;;;;;5059338;28;20080;-62
2022/01/27 02:47:23;;;;;;;39.28;19.70;;;6.40;99.90;;;;;;5077519;28;20044;-62
2022/01/27 02:49:49;;;;;;;39.75;20.85;;;6.30;99.90;;;;;;5076110;28;20393;-62
2022/01/27 02:52:15;;;;;;;37.50;18.95;;;6.30;99.90;;;;;;5076979;28;20172;-62
2022/01/27 02:54:41;;;;;;;35.75;19.40;;;;;;;;;;5077217;28;20037;-62
2022/01/27 02:57:07;;;;;;;36.50;19.95;;;6.20;99.90;;;;;;5076849;28;20405;-62
2022/01/27 02:59:33;;;;;;;42.00;20.92;;;6.40;99.90;;;;;;5058881;28;20051;-62
2022/01/27 03:01:59;;;;;;;40.95;20.23;;;6.40;99.90;;;;;;5077055;28;20094;-62
2022/01/27 03:04:26;;;;;;;40.75;21.05;;;6.30;99.90;;;;;;5076810;28;20066;-62
2022/01/27 03:06:52;;;;;;;44.25;21.35;;;6.20;99.90;;;;;;5058705;28;20044;-62
2022/01/27 03:09:18;;;;;;;38.00;20.33;;;6.30;99.90;;;;;;5058477;28;20055;-62
2022/01/27 03:11:48;;;;;;;38.30;20.90;;;6.30;99.90;;;;;;5076353;28;20506;-62
2022/01/27 03:14:16;;;;;;;35.33;19.75;;;6.40;99.90;;;;;;5074902;28;20049;-62
2022/01/27 03:16:43;;;;;;;39.10;20.13;;;6.20;99.90;;;;;;5042566;28;20486;-62
2022/01/27 03:19:10;;;;;;;35.03;19.85;;;;;;;;;;5058382;28;20039;-62
2022/01/27 03:21:35;;;;;;;39.78;20.65;;;6.30;99.90;;;;;;5058539;28;20051;-62
2022/01/27 03:24:01;;;;;;;37.97;20.67;;;6.40;99.90;;;;;;5058591;28;20044;-62
2022/01/27 03:26:27;;;;;;;43.67;20.65;;;6.30;99.90;;;;;;5058774;28;20078;-62
2022/01/27 03:28:54;;;;;;;36.28;19.05;;;6.40;99.90;;;;;;5058411;28;20478;-62
2022/01/27 03:31:20;;;;;;;38.92;18.83;;;6.60;99.90;;;;;;5075120;28;20502;-62
2022/01/27 03:33:46;;;;;;;35.92;16.73;;;6.60;99.90;;;;;;5058133;28;20048;-62
2022/01/27 03:36:12;;;;;;;42.17;20.27;;;6.30;99.90;;;;;;5059950;28;20036;-62
2022/01/27 03:38:38;;;;;;;39.40;18.95;;;6.40;99.90;;;;;;5055275;28;20044;-62
2022/01/27 03:41:08;;;;;;;37.15;18.20;;;6.50;99.90;;;;;;5055264;28;20043;-62
2022/01/27 03:43:35;;;;;;;37.78;18.23;;;6.40;99.90;;;;;;5056358;28;20041;-62
2022/01/27 03:46:01;;;;;;;41.92;19.25;;;6.30;99.90;;;;;;5056151;28;20119;-62
2022/01/27 03:48:28;;;;;;;33.63;18.95;;;;;;;;;;5038130;28;20128;-62
2022/01/27 03:50:53;;;;;;;36.67;17.67;;;;;;;;;;5060442;28;20543;-62
2022/01/27 03:53:19;;;;;;;34.70;18.23;;;6.40;99.90;;;;;;5075981;28;20045;-62
2022/01/27 03:55:45;;;;;;;35.97;17.10;;;6.50;99.90;;;;;;5057375;28;20482;-62
2022/01/27 03:58:10;;;;;;;40.22;17.33;;;6.60;99.90;;;;;;5075861;28;20083;-62
2022/01/27 04:00:37;;;;;;;35.92;19.25;;;6.60;99.90;;;;;;5058107;28;20059;-62
2022/01/27 04:03:07;;;;;;;40.75;18.85;;;6.40;99.90;;;;;;5057848;28;20045;-62
2022/01/27 04:05:56;;;;;;;39.22;18.88;;;6.50;99.90;;;;;;5057927;28;20049;-62
2022/01/27 04:08:20;;;;;;;38.42;18.42;;;6.40;99.90;;;;;;5075165;28;20049;-62
2022/01/27 04:10:47;;;;;;;41.03;18.38;;;6.40;99.90;;;;;;5058075;28;20158;-62
2022/01/27 04:13:13;;;;;;;40.65;18.00;;;6.50;99.90;;;;;;5075254;28;20506;-62
2022/01/27 04:15:40;;;;;;;39.08;16.77;;;6.40;99.90;;;;;;5040908;28;20135;-62
2022/01/27 04:18:06;;;;;;;38.88;17.65;;;6.50;99.90;;;;;;5057475;28;20568;-62
2022/01/27 04:20:32;;;;;;;39.40;18.60;;;6.40;99.90;;;;;;5057816;28;20433;-62
2022/01/27 04:22:58;;;;;;;38.78;17.65;;;;;;;;;;5057705;28;20041;-62
2022/01/27 04:25:23;;;;;;;33.35;15.93;;;6.40;99.90;;;;;;5075467;28;20048;-62
2022/01/27 04:27:53;;;;;;;38.83;16.90;;;6.50;99.90;;;;;;5040796;28;20051;-62
2022/01/27 04:30:22;;;;;;;34.92;17.33;;;6.50;99.90;;;;;;5075218;28;20070;-62
2022/01/27 04:32:58;;;;;;;42.85;18.70;;;6.40;99.90;;;;;;5075023;28;20513;-62
2022/01/27 04:35:28;;;;;;;43.75;18.85;;;6.50;99.90;;;;;;5075064;28;20063;-62
2022/01/27 04:40:42;;;;;;;37.60;18.88;;;6.50;99.90;;;;;;5057043;28;20555;-62
2022/01/27 04:48:23;;;;;;;37.47;17.55;;;6.50;99.90;;;;;;5074789;28;20578;-62
2022/01/27 04:50:50;;;;;;;35.28;16.27;;;6.70;99.90;;;;;;5040187;28;20033;-62
2022/01/27 04:53:26;;;;;;;36.85;15.90;;;6.60;99.90;;;;;;5073963;28;20486;-62
2022/01/27 04:55:54;;;;;;;38.90;17.30;;;6.60;99.90;;;;;;5059899;28;20143;-62
2022/01/27 04:58:28;;;;;;;34.40;15.68;;;6.70;99.90;;;;;;5070994;28;20043;-62
2022/01/27 05:00:56;;;;;;;40.30;16.15;;;6.70;99.90;;;;;;5038501;28;20040;-62
2022/01/27 05:03:33;;;;;;;33.30;16.40;;;6.70;99.90;;;;;;5067999;28;20045;-62
2022/01/27 05:05:59;;;;;;;32.05;14.85;;;6.70;99.90;;;;;;5073848;28;20047;-62
2022/01/27 05:08:25;;;;;;;32.65;15.60;;;;;;;;;;5055628;28;20494;-62
2022/01/27 05:11:07;;;;;;;36.65;16.92;;;;;;;;;;5073730;28;20036;-62
2022/01/27 05:13:40;;;;;;;36.95;17.25;;;6.60;99.90;;;;;;5064960;28;20084;-62
2022/01/27 05:16:06;;;;;;;34.95;16.00;;;;;;;;;;5073691;28;20047;-63
2022/01/27 05:18:32;;;;;;;44.50;17.85;;;6.80;99.90;;;;;;5068372;28;20055;-62
2022/01/27 05:20:58;;;;;;;32.67;15.15;;;6.80;99.90;;;;;;5081940;28;20032;-63
2022/01/27 05:23:23;;;;;;;29.30;15.68;;;6.90;99.90;;;;;;5055949;28;20037;-62
2022/01/27 05:25:49;;;;;;;28.30;14.65;;;6.80;99.90;;;;;;5073225;28;20032;-62
2022/01/27 05:28:15;;;;;;;36.13;16.45;;;7.00;99.90;;;;;;5073632;28;20474;-63
2022/01/27 05:30:40;;;;;;;30.98;13.93;;;7.00;99.90;;;;;;5073746;28;20111;-62
2022/01/27 05:33:09;;;;;;;35.53;17.60;;;6.80;99.90;;;;;;5055848;28;20049;-63
2022/01/27 05:35:35;;;;;;;32.15;14.13;;;6.90;99.90;;;;;;5073733;28;20045;-63
2022/01/27 05:38:01;;;;;;;36.90;15.73;;;6.80;99.90;;;;;;5055320;28;20048;-64
2022/01/27 05:40:27;;;;;;;34.00;14.70;;;;;;;;;;5049038;28;20414;-64
2022/01/27 05:42:53;;;;;;;34.88;14.68;;;6.70;99.90;;;;;;5054434;28;20139;-63
2022/01/27 05:45:19;;;;;;;35.05;14.73;;;6.90;99.90;;;;;;5064382;28;20149;-64
2022/01/27 05:47:44;;;;;;;35.42;15.10;;;6.90;99.90;;;;;;5052200;28;20045;-62
2022/01/27 05:50:10;;;;;;;35.80;14.43;;;6.90;99.90;;;;;;5052321;28;20044;-62
2022/01/27 05:52:36;;;;;;;37.25;14.32;;;;;;;;;;5061057;28;20072;-62
2022/01/27 05:55:02;;;;;;;34.22;13.88;;;6.90;99.90;;;;;;5072189;28;20123;-62
2022/01/27 05:57:28;;;;;;;38.83;15.57;;;6.90;99.90;;;;;;5064627;28;20083;-63
2022/01/27 05:59:53;;;;;;;41.38;16.92;;;;;;;;;;5050873;28;20079;-63
2022/01/27 06:02:19;;;;;;;36.10;14.15;;;6.80;99.90;;;;;;5054349;28;20083;-63
2022/01/27 06:04:45;;;;;;;33.70;13.70;;;6.80;99.90;;;;;;5089382;28;20119;-64
2022/01/27 06:07:11;;;;;;;36.10;14.93;;;6.90;99.90;;;;;;5073427;28;20040;-63
2022/01/27 06:09:36;;;;;;;32.60;14.55;;;6.90;99.90;;;;;;5074122;28;20039;-63
2022/01/27 06:12:02;;;;;;;31.10;13.43;;;;;;;;;;5085084;28;20042;-63
2022/01/27 06:14:28;;;;;;;32.85;14.85;;;6.70;99.90;;;;;;5089182;28;20059;-63
2022/01/27 06:16:53;;;;;;;32.80;13.07;;;6.70;99.90;;;;;;5075245;28;20031;-63
2022/01/27 06:19:19;;;;;;;35.95;15.52;;;6.80;99.90;;;;;;5074298;28;20044;-63
2022/01/27 06:21:45;;;;;;;33.17;13.30;;;7.00;99.90;;;;;;5077250;28;20174;-63
2022/01/27 06:24:11;;;;;;;26.63;12.93;;;6.80;99.90;;;;;;5073312;28;20151;-63
2022/01/27 06:26:36;;;;;;;34.58;13.90;;;6.80;99.90;;;;;;5054843;28;20516;-62
2022/01/27 06:29:03;;;;;;;35.63;13.77;;;6.80;99.90;;;;;;5072047;28;20143;-62
2022/01/27 06:31:28;;;;;;;32.80;13.43;;;6.80;99.90;;;;;;5072829;28;20040;-63
2022/01/27 06:33:54;;;;;;;31.60;14.18;;;6.80;99.90;;;;;;5073389;28;20047;-63
2022/01/27 06:36:20;;;;;;;29.88;13.23;;;6.70;99.90;;;;;;5055071;28;20044;-63
2022/01/27 06:38:46;;;;;;;30.00;12.65;;;6.90;99.90;;;;;;5073020;28;20048;-63
2022/01/27 06:41:11;;;;;;;29.13;13.43;;;6.70;99.90;;;;;;5072920;28;20060;-63
2022/01/27 06:43:37;;;;;;;25.95;12.13;;;6.90;99.90;;;;;;5053676;28;20036;-63
2022/01/27 06:46:03;;;;;;;26.65;12.90;;;7.00;99.90;;;;;;5066981;28;20036;-63
2022/01/27 06:48:29;;;;;;;29.05;13.15;;;6.70;99.90;;;;;;5072073;28;20127;-63
2022/01/27 06:50:55;;;;;;;33.78;14.40;;;6.80;99.90;;;;;;5069347;28;20127;-63
2022/01/27 06:53:22;;;;;;;33.72;13.27;;;6.90;99.90;;;;;;5091835;28;20115;-63
2022/01/27 06:55:48;;;;;;;29.13;13.60;;;6.90;99.90;;;;;;5069704;28;20037;-63
2022/01/27 06:58:14;;;;;;;35.10;14.63;;;6.90;99.90;;;;;;5091060;28;20051;-63
2022/01/27 07:00:39;;;;;;;34.90;12.45;;;6.90;99.90;;;;;;5088447;28;20028;-63
2022/01/27 07:03:05;;;;;;;28.83;13.13;;;6.90;99.90;;;;;;5087979;28;20032;-63
2022/01/27 07:05:34;;;;;;;26.02;12.43;;;6.70;99.90;;;;;;5070524;28;20040;-63
2022/01/27 07:08:00;;;;;;;28.75;12.95;;;6.90;99.90;;;;;;5073242;28;20036;-63
2022/01/27 07:10:26;;;;;;;34.50;12.57;;;6.90;99.90;;;;;;5054671;28;20044;-63
2022/01/27 07:12:51;;;;;;;23.98;10.93;;;6.90;99.90;;;;;;5054509;28;20106;-63
2022/01/27 07:15:17;;;;;;;28.50;11.68;;;7.10;99.90;;;;;;5071381;28;20116;-63
2022/01/27 07:17:43;;;;;;;25.17;11.57;;;7.10;99.90;;;;;;5073912;28;20040;-64
2022/01/27 07:20:09;;;;;;;30.73;12.18;;;7.00;99.90;;;;;;5072532;28;20036;-64
2022/01/27 07:22:36;;;;;;;26.98;11.57;;;7.10;99.90;;;;;;5056974;28;20082;-64
2022/01/27 07:25:04;;;;;;;28.40;12.60;;;7.10;99.90;;;;;;5061416;28;20048;-63
2022/01/27 07:27:31;;;;;;;29.23;12.07;;;7.10;99.90;;;;;;5056624;28;20403;-64
2022/01/27 07:29:57;;;;;;;23.02;10.57;;;7.10;99.90;;;;;;5068634;28;20033;-63
2022/01/27 07:32:23;;;;;;;23.65;11.35;;;;;;;;;;5055736;28;20055;-62
2022/01/27 07:34:48;;;;;;;28.52;11.02;;;7.20;99.90;;;;;;5071896;28;20043;-62
2022/01/27 07:37:14;;;;;;;25.23;12.30;;;7.20;99.90;;;;;;5069219;28;20037;-63
2022/01/27 07:39:39;;;;;;;24.77;11.65;;;7.20;99.90;;;;;;5075690;28;20097;-63
2022/01/27 07:42:05;;;;;;;34.70;12.90;;;7.30;99.90;;;;;;5062935;28;20036;-62
2022/01/27 07:44:31;;;;;;;33.53;12.50;;;7.40;99.90;;;;;;5061748;28;20067;-64
2022/01/27 07:46:57;;;;;;;28.85;12.93;;;7.30;99.90;;;;;;5067948;28;20613;-64
2022/01/27 07:49:22;;;;;;;37.67;15.10;;;7.30;99.90;;;;;;5066704;28;20046;-64
2022/01/27 07:51:48;;;;;;;33.50;14.38;;;7.20;99.90;;;;;;5082160;28;20047;-64
2022/01/27 07:54:14;;;;;;;34.17;12.10;;;7.20;99.90;;;;;;5069427;28;20032;-64
2022/01/27 07:56:40;;;;;;;30.20;13.73;;;7.30;99.90;;;;;;5054763;28;20449;-64
2022/01/27 07:59:06;;;;;;;29.83;12.43;;;7.30;99.90;;;;;;5058646;28;20036;-64
2022/01/27 08:01:31;;;;;;;27.42;12.32;;;7.40;99.90;;;;;;5054516;28;20071;-64
2022/01/27 08:03:57;;;;;;;24.63;11.85;;;7.30;99.90;;;;;;5052774;28;20098;-64
2022/01/27 08:06:22;;;;;;;37.90;12.70;;;7.30;99.90;;;;;;5068661;28;20044;-63
2022/01/27 08:08:49;;;;;;;32.85;11.30;;;7.40;99.90;;;;;;5054522;28;20044;-63
2022/01/27 08:11:14;;;;;;;31.92;12.00;;;7.40;99.90;;;;;;5067505;28;20045;-64
2022/01/27 08:13:40;;;;;;;36.45;13.95;;;7.50;99.90;;;;;;5053638;28;20179;-64
2022/01/27 08:16:06;;;;;;;29.60;11.93;;;7.40;99.90;;;;;;5051791;28;20049;-64
2022/01/27 08:18:31;;;;;;;29.98;11.00;;;7.40;99.90;;;;;;5053031;28;20037;-64
2022/01/27 08:20:57;;;;;;;34.55;11.30;;;7.50;99.90;;;;;;5064278;28;20546;-64
2022/01/27 08:23:22;;;;;;;38.17;12.02;;;7.50;99.90;;;;;;5053107;28;20495;-64
2022/01/27 08:25:53;;;;;;;28.52;11.27;;;7.70;99.90;;;;;;5053994;28;20071;-64
2022/01/27 08:28:29;;;;;;;30.25;10.80;;;7.50;99.90;;;;;;5066928;28;20037;-65
2022/01/27 08:30:56;;;;;;;33.97;12.02;;;7.50;99.90;;;;;;5068970;28;20128;-64
2022/01/27 08:33:23;;;;;;;29.98;10.70;;;7.60;99.90;;;;;;5056810;28;20045;-64
2022/01/27 08:35:49;;;;;;;27.50;10.88;;;7.50;99.90;;;;;;5060635;28;20087;-64
2022/01/27 08:38:15;;;;;;;24.73;9.93;;;7.50;99.90;;;;;;5066776;28;20071;-64
2022/01/27 08:40:40;;;;;;;32.35;10.75;;;7.70;99.90;;;;;;5061277;28;20090;-64
2022/01/27 08:43:10;;;;;;;27.67;10.07;;;;;;;;;;5061360;28;20091;-64
2022/01/27 08:45:39;;;;;;;20.35;9.68;;;7.60;99.90;;;;;;5049808;28;20045;-64
2022/01/27 08:48:06;;;;;;;31.17;11.20;;;7.60;99.90;;;;;;5068299;28;20546;-64
2022/01/27 08:50:32;;;;;;;28.58;10.18;;;;;;;;;;5063531;28;20512;-64
2022/01/27 08:52:57;;;;;;;23.30;10.25;;;7.70;99.90;;;;;;5070258;28;20127;-63
2022/01/27 08:55:24;;;;;;;25.55;10.35;;;;;;;;;;5066239;28;20529;-64
2022/01/27 08:57:50;;;;;;;24.17;10.13;;;7.80;99.90;;;;;;5053996;28;20125;-64
2022/01/27 09:00:19;;;;;;;28.63;9.65;;;;;;;;;;5052014;28;20033;-64
2022/01/27 09:02:46;;;;;;;24.58;10.20;;;;;;;;;;5062088;28;20552;-65
2022/01/27 09:05:12;;;;;;;18.75;8.57;;;;;;;;;;5063892;28;20040;-66
2022/01/27 09:07:38;;;;;;;22.10;9.80;;;7.90;99.90;;;;;;5051280;28;20087;-65
2022/01/27 09:10:05;;;;;;;29.25;8.70;;;8.00;99.90;;;;;;5065837;28;20080;-65
2022/01/27 09:12:31;;;;;;;22.77;10.10;;;8.10;99.90;;;;;;5069831;28;20075;-65
2022/01/27 09:14:57;;;;;;;28.05;8.57;;;;;;;;;;5062852;28;20502;-65
2022/01/27 09:17:26;;;;;;;23.10;8.57;;;8.20;99.90;;;;;;5057647;28;20126;-65
2022/01/27 09:19:52;;;;;;;32.92;7.55;;;8.20;99.90;;;;;;5055976;28;20037;-65
2022/01/27 09:22:19;;;;;;;26.17;7.88;;;;;;;;;;5063474;28;20506;-66
2022/01/27 09:24:59;;;;;;;19.23;6.20;;;8.20;99.90;;;;;;5064240;28;20507;-65
2022/01/27 09:27:26;;;;;;;17.45;6.75;;;8.40;99.90;;;;;;5065033;28;20040;-65
2022/01/27 09:29:53;;;;;;;20.10;6.78;;;;;;;;;;5048398;28;20040;-66
2022/01/27 09:32:19;;;;;;;22.80;7.22;;;8.70;99.90;;;;;;5048349;28;20047;-66
2022/01/27 09:34:46;;;;;;;20.65;6.97;;;8.60;99.90;;;;;;5048861;28;20056;-66
2022/01/27 09:37:12;;;;;;;24.48;7.07;;;8.60;99.90;;;;;;5049050;28;20040;-66
2022/01/27 09:39:38;;;;;;;17.60;7.32;;;;;;;;;;5054322;28;20047;-65
2022/01/27 09:42:06;;;;;;;22.73;7.00;;;8.50;99.90;;;;;;5062855;28;20049;-65
2022/01/27 09:44:33;;;;;;;19.77;6.65;;;;;;;;;;5062975;28;20128;-65
2022/01/27 09:47:06;;;;;;;18.23;6.05;;;8.60;99.90;;;;;;5047055;28;20076;-65
2022/01/27 09:52:27;;;;;;;16.60;6.17;;;;;;;;;;4995220;28;20624;-65
2022/01/27 09:54:53;;;;;;;20.70;5.82;;;;;;;;;;5047051;28;20052;-65
2022/01/27 09:57:19;;;;;;;15.57;5.78;;;;;;;;;;5062284;28;20425;-65
2022/01/27 09:59:45;;;;;;;18.38;5.90;;;8.80;99.90;;;;;;5057455;28;20046;-65
2022/01/27 10:02:15;;;;;;;22.25;5.50;;;;;;;;;;5072430;28;20045;-65
2022/01/27 10:04:48;;;;;;;14.13;5.40;;;8.70;99.90;;;;;;5048263;28;20545;-66
2022/01/27 10:07:17;;;;;;;18.58;5.32;;;8.80;99.90;;;;;;5063138;28;20047;-66
2022/01/27 10:10:04;;;;;;;18.30;5.68;;;8.80;99.90;;;;;;5078395;28;20043;-65
2022/01/27 10:12:36;;;;;;;14.45;5.53;;;8.80;99.90;;;;;;5062115;28;20039;-66
2022/01/27 10:15:13;;;;;;;17.85;5.57;;;8.10;99.90;;;;;;5064986;28;20477;-66
2022/01/27 10:18:25;;;;;;;16.52;4.68;;;8.90;99.90;;;;;;5066217;28;20059;-66
2022/01/27 10:20:52;;;;;;;23.13;6.00;;;8.90;99.90;;;;;;5060224;28;20391;-66
2022/01/27 10:23:24;;;;;;;17.65;5.80;;;8.90;99.90;;;;;;5081844;28;20039;-66
2022/01/27 10:25:54;;;;;;;16.58;5.35;;;8.90;99.90;;;;;;5080853;28;20106;-65
2022/01/27 10:28:32;;;;;;;21.50;5.63;;;8.80;99.90;;;;;;5083133;28;20078;-65
2022/01/27 10:31:06;;;;;;;19.60;5.63;;;;;;;;;;5075346;28;20051;-66
2022/01/27 10:33:53;;;;;;;16.73;5.57;;;8.90;99.90;;;;;;5062408;28;20407;-65
2022/01/27 10:36:26;;;;;;;17.33;5.05;;;9.00;99.90;;;;;;5033893;28;20078;-65
2022/01/27 10:38:56;;;;;;;20.02;5.28;;;8.90;99.90;;;;;;5049201;28;20123;-65
2022/01/27 10:41:23;;;;;;;18.00;5.47;;;8.90;99.90;;;;;;5047539;28;20398;-65
2022/01/27 10:43:49;;;;;;;18.45;4.85;;;8.90;99.90;;;;;;5065100;28;20098;-65
2022/01/27 10:46:25;;;;;;;20.50;6.20;;;8.90;99.90;;;;;;5070503;28;20066;-65
2022/01/27 10:48:59;;;;;;;15.48;5.03;;;9.50;99.90;;;;;;5034094;28;20041;-65
2022/01/27 10:51:32;;;;;;;23.10;5.05;;;9.00;99.90;;;;;;5057173;28;20050;-65
2022/01/27 10:54:03;;;;;;;18.30;4.95;;;8.90;99.90;;;;;;5079055;28;20036;-65
2022/01/27 10:56:35;;;;;;;21.95;5.07;;;9.00;99.90;;;;;;5062257;28;20044;-66
2022/01/27 10:59:03;;;;;;;13.85;5.18;;;9.00;99.90;;;;;;5080138;28;20043;-65
2022/01/27 11:01:41;;;;;;;17.55;4.28;;;9.10;99.90;;;;;;5068349;28;20510;-65
2022/01/27 11:04:09;;;;;;;16.10;5.40;;;9.20;99.90;;;;;;5083447;28;20040;-66
2022/01/27 11:06:36;;;;;;;21.95;4.80;;;9.20;99.90;;;;;;5082269;28;20075;-66
2022/01/27 11:09:08;;;;;;;13.55;4.28;;;9.20;99.90;;;;;;5086767;28;20040;-65
2022/01/27 11:11:38;;;;;;;18.83;5.45;;;9.20;99.90;;;;;;5065607;28;20052;-65
2022/01/27 11:14:04;;;;;;;17.13;4.60;;;9.30;99.90;;;;;;5071120;28;20477;-65
2022/01/27 11:16:36;;;;;;;20.25;5.15;;;9.30;99.90;;;;;;5052900;28;20049;-64
2022/01/27 11:19:18;;;;;;;17.73;5.22;;;9.30;99.90;;;;;;5055988;28;20111;-64
2022/01/27 11:21:51;;;;;;;17.33;4.15;;;9.40;99.90;;;;;;5053270;28;20116;-65
2022/01/27 11:24:29;;;;;;;16.42;4.72;;;9.50;99.90;;;;;;5063681;28;20102;-64
2022/01/27 11:26:58;;;;;;;11.05;3.63;;;9.40;99.90;;;;;;5055547;28;20107;-65
2022/01/27 11:29:26;;;;;;;14.32;4.30;;;9.50;99.90;;;;;;5052731;28;20121;-64
2022/01/27 11:32:30;;;;;;;22.48;4.90;;;9.70;99.90;;;;;;5059545;28;20041;-64
2022/01/27 11:34:56;;;;;;;15.35;4.07;;;;;;;;;;5039382;28;20045;-64
2022/01/27 11:37:35;;;;;;;21.38;5.50;;;9.40;99.90;;;;;;5053924;28;20599;-64
2022/01/27 11:40:06;;;;;;;16.73;3.72;;;9.30;99.90;;;;;;5050577;28;20036;-64
2022/01/27 11:42:35;;;;;;;19.30;4.40;;;9.50;99.90;;;;;;5072798;28;20040;-64
2022/01/27 11:45:24;;;;;;;15.95;4.07;;;9.40;99.90;;;;;;5058412;28;20110;-64
2022/01/27 11:48:06;;;;;;;14.38;3.65;;;9.40;99.90;;;;;;5052001;28;20055;-64
2022/01/27 11:50:37;;;;;;;14.23;3.15;;;9.50;99.90;;;;;;5059091;28;20043;-64
2022/01/27 11:53:08;;;;;;;17.67;5.53;;;9.50;99.90;;;;;;5061436;28;20511;-64
2022/01/27 11:55:33;;;;;;;12.10;5.65;;;;;;;;;;5064049;28;20040;-64
2022/01/27 11:58:14;;;;;;;13.27;3.70;;;9.60;99.90;;;;;;5083595;28;20028;-64
2022/01/27 12:00:40;;;;;;;16.25;4.10;;;9.60;99.90;;;;;;5082364;28;20047;-65
2022/01/27 12:03:15;;;;;;;17.58;3.70;;;;;;;;;;5064429;28;20047;-64
2022/01/27 12:06:02;;;;;;;14.95;3.65;;;9.70;99.90;;;;;;5077293;28;20401;-64
2022/01/27 12:08:28;;;;;;;15.70;3.67;;;;;;;;;;5080432;28;20044;-64
2022/01/27 12:11:03;;;;;;;28.13;4.03;;;9.60;99.90;;;;;;5060318;28;20045;-64
2022/01/27 12:19:02;;;;;;;16.52;4.47;;;9.60;99.90;;;;;;5062210;28;20499;-64
2022/01/27 12:21:34;;;;;;;15.38;3.42;;;9.70;99.90;;;;;;5056078;28;20044;-64
2022/01/27 12:24:18;;;;;;;15.23;3.33;;;9.70;99.90;;;;;;5068946;28;20100;-64
2022/01/27 12:26:51;;;;;;;18.48;4.85;;;9.60;99.90;;;;;;5081518;28;20118;-64
2022/01/27 12:29:23;;;;;;;21.33;3.97;;;9.70;99.90;;;;;;5084110;28;20040;-64
2022/01/27 12:31:50;;;;;;;17.90;3.45;;;9.80;99.90;;;;;;5061301;28;20041;-64
2022/01/27 12:34:16;;;;;;;18.42;3.40;;;9.80;99.90;;;;;;5064998;28;20039;-64
2022/01/27 12:36:58;;;;;;;18.75;4.30;;;;;;;;;;5080781;28;20428;-64
2022/01/27 12:39:26;;;;;;;27.33;3.78;;;9.60;99.90;;;;;;5082293;28;20089;-66
2022/01/27 12:41:54;;;;;;;19.80;3.53;;;9.80;99.90;;;;;;5066032;28;20050;-64
2022/01/27 12:44:20;;;;;;;14.05;4.13;;;9.70;99.90;;;;;;5073690;28;20075;-64
2022/01/27 12:47:07;;;;;;;16.13;3.28;;;9.50;99.90;;;;;;5054319;28;20052;-64
2022/01/27 12:49:47;;;;;;;16.65;3.15;;;9.70;99.90;;;;;;5058903;28;20048;-64
2022/01/27 12:52:19;;;;;;;19.80;3.22;;;9.70;99.90;;;;;;5069057;28;20051;-63
2022/01/27 12:54:49;;;;;;;25.58;4.45;;;9.80;99.90;;;;;;5068097;28;20406;-63
2022/01/27 12:57:26;;;;;;;16.70;3.97;;;9.70;99.90;;;;;;5034435;28;20098;-64
2022/01/27 12:59:54;;;;;;;19.88;3.33;;;9.50;99.90;;;;;;5050101;28;20043;-64
2022/01/27 13:02:21;;;;;;;19.17;3.92;;;9.60;99.90;;;;;;5066348;28;20052;-64
2022/01/27 13:04:49;;;;;;;17.48;3.72;;;9.80;99.90;;;;;;5061516;28;20045;-64
2022/01/27 13:07:15;;;;;;;12.60;3.38;;;9.70;99.90;;;;;;5050914;28;20045;-64
2022/01/27 13:09:41;;;;;;;19.30;3.58;;;9.90;99.90;;;;;;5060575;28;20178;-64
2022/01/27 13:12:20;;;;;;;19.85;4.28;;;9.70;99.90;;;;;;5050734;28;20132;-63
2022/01/27 13:15:16;;;;;;;19.88;4.35;;;9.80;99.90;;;;;;5063203;28;20052;-64
2022/01/27 13:20:34;;;;;;;18.02;3.65;;;9.70;99.90;;;;;;5050432;28;20041;-63
2022/01/27 13:23:29;;;;;;;12.35;3.08;;;9.60;99.90;;;;;;5048180;28;20036;-64
2022/01/27 13:26:01;;;;;;;22.08;4.55;;;9.70;99.90;;;;;;5049701;28;20391;-63
2022/01/27 13:28:34;;;;;;;14.32;2.78;;;9.60;99.90;;;;;;5063011;28;20049;-64
2022/01/27 13:31:02;;;;;;;25.42;4.35;;;9.70;99.90;;;;;;5062564;28;20047;-64
2022/01/27 13:33:29;;;;;;;19.58;3.13;;;9.80;99.90;;;;;;5071443;28;20497;-63
2022/01/27 13:35:59;;;;;;;19.65;3.50;;;9.80;99.90;;;;;;5061205;28;20037;-64
2022/01/27 13:38:29;;;;;;;19.48;4.03;;;9.90;99.90;;;;;;5053420;28;20498;-63
2022/01/27 13:41:16;;;;;;;16.55;3.05;;;9.80;99.90;;;;;;5051538;28;20445;-64
2022/01/27 13:43:45;;;;;;;23.27;4.35;;;9.80;99.90;;;;;;5056923;28;20062;-64
2022/01/27 13:46:31;;;;;;;17.95;4.07;;;9.70;99.90;;;;;;5050114;28;20049;-64
2022/01/27 13:49:05;;;;;;;22.23;3.70;;;9.60;99.90;;;;;;5053935;28;20049;-63
2022/01/27 13:51:31;;;;;;;18.88;3.22;;;;;;;;;;5062800;28;20419;-63
2022/01/27 13:53:58;;;;;;;19.15;3.53;;;9.70;99.90;;;;;;5052378;28;20060;-64
2022/01/27 13:56:24;;;;;;;16.75;3.20;;;9.50;99.90;;;;;;5068015;28;20049;-63